Aeroporto :
LOGIN :

Iscrizione | Disclaimer

   EN    FR    IT 

 










Sommario :    VFR   VFR Marginale   IFR   IFR Intensivo   IFR Molto Intensivo
Visibilità : 
Base nubi : 
>= 8 km
>= 3000ft
5 / 8 km
1000 / 3000 ft
1500m / 5 km
500 / 1000 ft
800 / 1500m
200 / 500 ft
< 800m
< 200 ft
Simboli :   Temporali  Nebbia  Neve Forte  Precipitazioni Forti  Vento > 20 kt
SIGMETs :   Varie  Temporali  Ghiacco  Turbolenza  Onda orograficha  Ceneri Vulcaniche






- Altitudine del aeroporto : 789 ft
- Codice IATA : BZO


LIPB - Bolzano

ULTIMO METAR :
  • 290750Z 33002KT 6000 DZ FEW005 SCT010 BKN050 04/03 Q1017

METARs OBSOLETI :
  • 290650Z VRB02KT 7000 DZ FEW005 SCT010 BKN050 03/03 Q1017
  • 290550Z 32002KT 7000 DZ BKN010 03/03 Q1017

TAF TAF LIPB
Valido dal 29 a 06 ore il 30 a 06 ore UTC


290537Z 2906/3006 VRB05KT 7000 BKN030 BKN060
TEMPO 2906/2921 4000 RA BKN010 BKN060



MetMap, La meteo Aeronautica in un colpo d'occhio ! - Copyright ORBIFLY Dicembre 2007 - Disclaimer

ORBIFLY MET'MAP TEAM :

Programmazione e sviluppo : Alexandra Zaïnal
Concezione : Baudouin d'Aumeries
Supporto tecnico e logistico : Manuel Goepfert
Aiuto : Marc-Olivier Méhu
Aiuto per la traduzione : Arnaldo La Scala




FONTI E CREDITI :

   NOAA